sensor_id;sensor_type;location;lat;lon;timestamp;P1;durP1;ratioP1;P2;durP2;ratioP2
71665;SDS011;59503;53.486;10.196;2023-06-04T00:00:00;3.47;;;1.60;;
71665;SDS011;59503;53.486;10.196;2023-06-04T00:02:25;3.33;;;1.73;;
71665;SDS011;59503;53.486;10.196;2023-06-04T00:04:51;9.07;;;2.50;;
71665;SDS011;59503;53.486;10.196;2023-06-04T00:07:16;4.93;;;2.20;;
71665;SDS011;59503;53.486;10.196;2023-06-04T00:09:42;3.08;;;1.65;;
71665;SDS011;59503;53.486;10.196;2023-06-04T00:12:09;3.30;;;1.67;;
71665;SDS011;59503;53.486;10.196;2023-06-04T00:14:34;3.50;;;1.90;;
71665;SDS011;59503;53.486;10.196;2023-06-04T00:16:59;4.23;;;1.60;;
71665;SDS011;59503;53.486;10.196;2023-06-04T00:19:25;2.75;;;1.65;;
71665;SDS011;59503;53.486;10.196;2023-06-04T00:21:50;2.50;;;1.43;;
71665;SDS011;59503;53.486;10.196;2023-06-04T00:24:16;3.80;;;1.60;;
71665;SDS011;59503;53.486;10.196;2023-06-04T00:26:42;4.15;;;1.63;;
71665;SDS011;59503;53.486;10.196;2023-06-04T00:29:07;4.17;;;1.37;;
71665;SDS011;59503;53.486;10.196;2023-06-04T00:31:32;3.67;;;1.63;;
71665;SDS011;59503;53.486;10.196;2023-06-04T00:33:58;3.03;;;1.43;;
71665;SDS011;59503;53.486;10.196;2023-06-04T00:36:23;2.80;;;1.48;;
71665;SDS011;59503;53.486;10.196;2023-06-04T00:38:48;6.00;;;1.60;;
71665;SDS011;59503;53.486;10.196;2023-06-04T00:41:14;3.43;;;1.57;;
71665;SDS011;59503;53.486;10.196;2023-06-04T00:43:39;4.10;;;1.60;;
71665;SDS011;59503;53.486;10.196;2023-06-04T00:46:05;4.22;;;1.55;;
71665;SDS011;59503;53.486;10.196;2023-06-04T00:48:31;3.70;;;1.90;;
71665;SDS011;59503;53.486;10.196;2023-06-04T00:50:57;2.90;;;1.35;;
71665;SDS011;59503;53.486;10.196;2023-06-04T00:53:23;3.23;;;1.40;;
71665;SDS011;59503;53.486;10.196;2023-06-04T00:55:50;3.88;;;1.50;;
71665;SDS011;59503;53.486;10.196;2023-06-04T00:58:16;3.80;;;1.55;;
71665;SDS011;59503;53.486;10.196;2023-06-04T01:00:44;5.25;;;1.50;;
71665;SDS011;59503;53.486;10.196;2023-06-04T01:03:10;3.33;;;1.60;;
71665;SDS011;59503;53.486;10.196;2023-06-04T01:06:02;3.40;;;1.60;;
71665;SDS011;59503;53.486;10.196;2023-06-04T01:08:29;3.25;;;1.75;;
71665;SDS011;59503;53.486;10.196;2023-06-04T01:10:55;3.30;;;1.58;;
71665;SDS011;59503;53.486;10.196;2023-06-04T01:13:22;2.42;;;1.30;;
71665;SDS011;59503;53.486;10.196;2023-06-04T01:15:47;3.77;;;1.40;;
71665;SDS011;59503;53.486;10.196;2023-06-04T01:18:14;2.95;;;1.50;;
71665;SDS011;59503;53.486;10.196;2023-06-04T01:20:52;4.40;;;2.10;;
71665;SDS011;59503;53.486;10.196;2023-06-04T01:26:13;8.18;;;1.90;;
71665;SDS011;59503;53.486;10.196;2023-06-04T01:28:39;3.33;;;1.83;;
71665;SDS011;59503;53.486;10.196;2023-06-04T01:31:05;3.08;;;1.80;;
71665;SDS011;59503;53.486;10.196;2023-06-04T01:33:34;3.77;;;2.10;;
71665;SDS011;59503;53.486;10.196;2023-06-04T01:36:00;5.50;;;1.90;;
71665;SDS011;59503;53.486;10.196;2023-06-04T01:38:26;3.80;;;2.00;;
71665;SDS011;59503;53.486;10.196;2023-06-04T01:40:52;3.53;;;1.80;;
71665;SDS011;59503;53.486;10.196;2023-06-04T01:43:21;5.90;;;1.70;;
71665;SDS011;59503;53.486;10.196;2023-06-04T01:45:47;3.97;;;1.65;;
71665;SDS011;59503;53.486;10.196;2023-06-04T01:48:13;3.50;;;2.15;;
71665;SDS011;59503;53.486;10.196;2023-06-04T01:50:38;4.80;;;2.10;;
71665;SDS011;59503;53.486;10.196;2023-06-04T01:53:04;3.43;;;2.17;;
71665;SDS011;59503;53.486;10.196;2023-06-04T01:55:29;3.67;;;1.63;;
71665;SDS011;59503;53.486;10.196;2023-06-04T01:57:58;4.47;;;2.50;;
71665;SDS011;59503;53.486;10.196;2023-06-04T02:00:24;3.80;;;2.00;;
71665;SDS011;59503;53.486;10.196;2023-06-04T02:02:49;3.97;;;2.00;;
71665;SDS011;59503;53.486;10.196;2023-06-04T02:05:15;3.38;;;1.88;;
71665;SDS011;59503;53.486;10.196;2023-06-04T02:07:42;3.63;;;2.10;;
71665;SDS011;59503;53.486;10.196;2023-06-04T02:10:13;3.78;;;2.13;;
71665;SDS011;59503;53.486;10.196;2023-06-04T02:12:40;3.17;;;1.90;;
71665;SDS011;59503;53.486;10.196;2023-06-04T02:15:18;4.78;;;2.38;;
71665;SDS011;59503;53.486;10.196;2023-06-04T02:17:43;4.60;;;2.00;;
71665;SDS011;59503;53.486;10.196;2023-06-04T02:20:10;3.63;;;2.35;;
71665;SDS011;59503;53.486;10.196;2023-06-04T02:22:36;6.55;;;2.38;;
71665;SDS011;59503;53.486;10.196;2023-06-04T02:25:02;4.27;;;2.17;;
71665;SDS011;59503;53.486;10.196;2023-06-04T02:27:27;4.00;;;2.10;;
71665;SDS011;59503;53.486;10.196;2023-06-04T02:29:53;4.50;;;2.13;;
71665;SDS011;59503;53.486;10.196;2023-06-04T02:32:18;3.47;;;2.10;;
71665;SDS011;59503;53.486;10.196;2023-06-04T02:34:43;4.60;;;2.60;;
71665;SDS011;59503;53.486;10.196;2023-06-04T02:37:09;4.43;;;2.35;;
71665;SDS011;59503;53.486;10.196;2023-06-04T02:39:35;4.33;;;2.30;;
71665;SDS011;59503;53.486;10.196;2023-06-04T02:42:00;4.05;;;2.08;;
71665;SDS011;59503;53.486;10.196;2023-06-04T02:44:26;7.73;;;2.10;;
71665;SDS011;59503;53.486;10.196;2023-06-04T02:46:51;4.20;;;2.30;;
71665;SDS011;59503;53.486;10.196;2023-06-04T02:49:16;6.07;;;2.00;;
71665;SDS011;59503;53.486;10.196;2023-06-04T02:51:42;3.88;;;2.30;;
71665;SDS011;59503;53.486;10.196;2023-06-04T02:54:08;4.30;;;2.20;;
71665;SDS011;59503;53.486;10.196;2023-06-04T02:56:35;5.17;;;1.63;;
71665;SDS011;59503;53.486;10.196;2023-06-04T02:59:02;5.95;;;2.00;;
71665;SDS011;59503;53.486;10.196;2023-06-04T03:01:27;3.70;;;1.83;;
71665;SDS011;59503;53.486;10.196;2023-06-04T03:03:53;4.23;;;2.00;;
71665;SDS011;59503;53.486;10.196;2023-06-04T03:06:20;4.43;;;2.28;;
71665;SDS011;59503;53.486;10.196;2023-06-04T03:08:47;3.25;;;1.80;;
71665;SDS011;59503;53.486;10.196;2023-06-04T03:11:13;3.78;;;2.20;;
71665;SDS011;59503;53.486;10.196;2023-06-04T03:13:39;5.43;;;2.40;;
71665;SDS011;59503;53.486;10.196;2023-06-04T03:16:05;3.58;;;1.90;;
71665;SDS011;59503;53.486;10.196;2023-06-04T03:18:39;4.82;;;2.03;;
71665;SDS011;59503;53.486;10.196;2023-06-04T03:21:05;4.45;;;2.03;;
71665;SDS011;59503;53.486;10.196;2023-06-04T03:23:31;3.93;;;2.10;;
71665;SDS011;59503;53.486;10.196;2023-06-04T03:25:57;3.58;;;1.85;;
71665;SDS011;59503;53.486;10.196;2023-06-04T03:28:22;3.50;;;2.03;;
71665;SDS011;59503;53.486;10.196;2023-06-04T03:30:48;3.75;;;2.10;;
71665;SDS011;59503;53.486;10.196;2023-06-04T03:33:13;2.77;;;1.80;;
71665;SDS011;59503;53.486;10.196;2023-06-04T03:35:42;3.67;;;2.00;;
71665;SDS011;59503;53.486;10.196;2023-06-04T03:38:07;4.72;;;2.08;;
71665;SDS011;59503;53.486;10.196;2023-06-04T03:40:33;3.73;;;1.90;;
71665;SDS011;59503;53.486;10.196;2023-06-04T03:42:58;4.60;;;2.47;;
71665;SDS011;59503;53.486;10.196;2023-06-04T03:45:25;6.13;;;2.10;;
71665;SDS011;59503;53.486;10.196;2023-06-04T03:47:51;11.60;;;2.08;;
71665;SDS011;59503;53.486;10.196;2023-06-04T03:50:17;3.58;;;1.92;;
71665;SDS011;59503;53.486;10.196;2023-06-04T03:52:43;4.00;;;2.08;;
71665;SDS011;59503;53.486;10.196;2023-06-04T03:55:09;3.93;;;2.17;;
71665;SDS011;59503;53.486;10.196;2023-06-04T03:57:36;4.15;;;2.22;;
71665;SDS011;59503;53.486;10.196;2023-06-04T04:00:03;4.55;;;1.80;;
71665;SDS011;59503;53.486;10.196;2023-06-04T04:02:30;5.30;;;1.93;;
71665;SDS011;59503;53.486;10.196;2023-06-04T04:04:56;4.75;;;2.00;;
71665;SDS011;59503;53.486;10.196;2023-06-04T04:07:22;3.40;;;1.70;;
71665;SDS011;59503;53.486;10.196;2023-06-04T04:09:48;4.35;;;2.10;;
71665;SDS011;59503;53.486;10.196;2023-06-04T04:12:13;4.73;;;1.67;;
71665;SDS011;59503;53.486;10.196;2023-06-04T04:14:38;4.38;;;1.70;;
71665;SDS011;59503;53.486;10.196;2023-06-04T04:17:04;2.53;;;1.87;;
71665;SDS011;59503;53.486;10.196;2023-06-04T04:19:29;2.97;;;1.50;;
71665;SDS011;59503;53.486;10.196;2023-06-04T04:21:55;3.15;;;1.27;;
71665;SDS011;59503;53.486;10.196;2023-06-04T04:24:24;2.97;;;1.50;;
71665;SDS011;59503;53.486;10.196;2023-06-04T04:26:51;3.53;;;1.52;;
71665;SDS011;59503;53.486;10.196;2023-06-04T04:29:20;2.53;;;1.53;;
71665;SDS011;59503;53.486;10.196;2023-06-04T04:31:53;4.95;;;1.63;;
71665;SDS011;59503;53.486;10.196;2023-06-04T04:34:22;5.25;;;1.70;;
71665;SDS011;59503;53.486;10.196;2023-06-04T04:36:51;2.47;;;1.40;;
71665;SDS011;59503;53.486;10.196;2023-06-04T04:39:20;4.45;;;1.80;;
71665;SDS011;59503;53.486;10.196;2023-06-04T04:41:47;2.20;;;1.60;;
71665;SDS011;59503;53.486;10.196;2023-06-04T04:44:13;2.50;;;1.38;;
71665;SDS011;59503;53.486;10.196;2023-06-04T04:46:38;3.63;;;1.83;;
71665;SDS011;59503;53.486;10.196;2023-06-04T04:49:03;3.07;;;1.23;;
71665;SDS011;59503;53.486;10.196;2023-06-04T04:51:29;3.73;;;1.70;;
71665;SDS011;59503;53.486;10.196;2023-06-04T04:53:54;3.88;;;1.70;;
71665;SDS011;59503;53.486;10.196;2023-06-04T04:56:20;6.37;;;1.70;;
71665;SDS011;59503;53.486;10.196;2023-06-04T04:58:47;5.47;;;1.73;;
71665;SDS011;59503;53.486;10.196;2023-06-04T05:01:13;3.60;;;2.00;;
71665;SDS011;59503;53.486;10.196;2023-06-04T05:03:38;2.85;;;1.80;;
71665;SDS011;59503;53.486;10.196;2023-06-04T05:06:04;4.97;;;2.17;;
71665;SDS011;59503;53.486;10.196;2023-06-04T05:08:29;3.50;;;1.90;;
71665;SDS011;59503;53.486;10.196;2023-06-04T05:10:54;3.90;;;1.90;;
71665;SDS011;59503;53.486;10.196;2023-06-04T05:13:20;3.58;;;2.08;;
71665;SDS011;59503;53.486;10.196;2023-06-04T05:15:45;3.17;;;1.73;;
71665;SDS011;59503;53.486;10.196;2023-06-04T05:18:12;4.50;;;2.03;;
71665;SDS011;59503;53.486;10.196;2023-06-04T05:20:38;4.97;;;1.67;;
71665;SDS011;59503;53.486;10.196;2023-06-04T05:23:04;4.83;;;1.67;;
71665;SDS011;59503;53.486;10.196;2023-06-04T05:25:29;3.92;;;1.50;;
71665;SDS011;59503;53.486;10.196;2023-06-04T05:27:58;4.23;;;1.90;;
71665;SDS011;59503;53.486;10.196;2023-06-04T05:30:23;4.35;;;1.80;;
71665;SDS011;59503;53.486;10.196;2023-06-04T05:32:49;4.63;;;1.75;;
71665;SDS011;59503;53.486;10.196;2023-06-04T05:35:15;4.13;;;1.40;;
71665;SDS011;59503;53.486;10.196;2023-06-04T05:37:41;4.40;;;1.67;;
71665;SDS011;59503;53.486;10.196;2023-06-04T05:40:10;5.78;;;1.40;;
71665;SDS011;59503;53.486;10.196;2023-06-04T05:42:36;3.55;;;1.48;;
71665;SDS011;59503;53.486;10.196;2023-06-04T05:45:02;3.28;;;1.70;;
71665;SDS011;59503;53.486;10.196;2023-06-04T05:47:28;6.37;;;1.87;;
71665;SDS011;59503;53.486;10.196;2023-06-04T05:49:54;3.22;;;1.48;;
71665;SDS011;59503;53.486;10.196;2023-06-04T05:52:20;2.93;;;1.30;;
71665;SDS011;59503;53.486;10.196;2023-06-04T05:54:45;2.80;;;1.60;;
71665;SDS011;59503;53.486;10.196;2023-06-04T05:57:11;4.20;;;1.67;;
71665;SDS011;59503;53.486;10.196;2023-06-04T05:59:36;3.00;;;1.40;;
71665;SDS011;59503;53.486;10.196;2023-06-04T06:02:01;2.33;;;1.53;;
71665;SDS011;59503;53.486;10.196;2023-06-04T06:04:27;4.22;;;1.58;;
71665;SDS011;59503;53.486;10.196;2023-06-04T06:06:53;5.43;;;1.57;;
71665;SDS011;59503;53.486;10.196;2023-06-04T06:09:19;3.50;;;1.73;;
71665;SDS011;59503;53.486;10.196;2023-06-04T06:11:44;9.63;;;1.83;;
71665;SDS011;59503;53.486;10.196;2023-06-04T06:14:10;4.93;;;1.42;;
71665;SDS011;59503;53.486;10.196;2023-06-04T06:16:36;3.97;;;1.50;;
71665;SDS011;59503;53.486;10.196;2023-06-04T06:19:01;4.43;;;1.50;;
71665;SDS011;59503;53.486;10.196;2023-06-04T06:21:27;3.00;;;1.43;;
71665;SDS011;59503;53.486;10.196;2023-06-04T06:23:53;2.80;;;1.57;;
71665;SDS011;59503;53.486;10.196;2023-06-04T06:26:19;2.60;;;1.48;;
71665;SDS011;59503;53.486;10.196;2023-06-04T06:28:44;4.57;;;1.60;;
71665;SDS011;59503;53.486;10.196;2023-06-04T06:31:10;2.97;;;1.57;;
71665;SDS011;59503;53.486;10.196;2023-06-04T06:33:35;2.90;;;1.50;;
71665;SDS011;59503;53.486;10.196;2023-06-04T06:36:09;2.50;;;1.42;;
71665;SDS011;59503;53.486;10.196;2023-06-04T06:38:37;2.72;;;1.48;;
71665;SDS011;59503;53.486;10.196;2023-06-04T06:41:02;3.50;;;1.50;;
71665;SDS011;59503;53.486;10.196;2023-06-04T06:43:27;3.40;;;2.00;;
71665;SDS011;59503;53.486;10.196;2023-06-04T06:45:53;4.20;;;1.50;;
71665;SDS011;59503;53.486;10.196;2023-06-04T06:48:18;4.03;;;1.95;;
71665;SDS011;59503;53.486;10.196;2023-06-04T06:50:44;5.17;;;1.80;;
71665;SDS011;59503;53.486;10.196;2023-06-04T06:53:09;4.27;;;1.60;;
71665;SDS011;59503;53.486;10.196;2023-06-04T06:55:35;4.57;;;1.70;;
71665;SDS011;59503;53.486;10.196;2023-06-04T06:58:00;3.03;;;1.40;;
71665;SDS011;59503;53.486;10.196;2023-06-04T07:00:26;3.57;;;1.67;;
71665;SDS011;59503;53.486;10.196;2023-06-04T07:02:53;4.90;;;1.73;;
71665;SDS011;59503;53.486;10.196;2023-06-04T07:05:19;5.53;;;1.38;;
71665;SDS011;59503;53.486;10.196;2023-06-04T07:07:44;2.67;;;1.63;;
71665;SDS011;59503;53.486;10.196;2023-06-04T07:10:11;4.53;;;1.65;;
71665;SDS011;59503;53.486;10.196;2023-06-04T07:12:38;3.38;;;1.40;;
71665;SDS011;59503;53.486;10.196;2023-06-04T07:15:04;3.97;;;1.50;;
71665;SDS011;59503;53.486;10.196;2023-06-04T07:17:31;4.28;;;1.40;;
71665;SDS011;59503;53.486;10.196;2023-06-04T07:19:56;3.37;;;2.00;;
71665;SDS011;59503;53.486;10.196;2023-06-04T07:22:21;2.42;;;1.30;;
71665;SDS011;59503;53.486;10.196;2023-06-04T07:24:47;4.87;;;1.70;;
71665;SDS011;59503;53.486;10.196;2023-06-04T07:27:12;4.30;;;1.77;;
71665;SDS011;59503;53.486;10.196;2023-06-04T07:29:39;3.13;;;1.50;;
71665;SDS011;59503;53.486;10.196;2023-06-04T07:32:05;4.57;;;1.27;;
71665;SDS011;59503;53.486;10.196;2023-06-04T07:34:30;7.57;;;1.90;;
71665;SDS011;59503;53.486;10.196;2023-06-04T07:36:56;5.38;;;1.65;;
71665;SDS011;59503;53.486;10.196;2023-06-04T07:39:21;2.43;;;1.60;;
71665;SDS011;59503;53.486;10.196;2023-06-04T07:41:47;7.27;;;2.10;;
71665;SDS011;59503;53.486;10.196;2023-06-04T07:44:12;4.13;;;1.20;;
71665;SDS011;59503;53.486;10.196;2023-06-04T07:46:38;3.77;;;1.60;;
71665;SDS011;59503;53.486;10.196;2023-06-04T07:49:03;4.23;;;1.60;;
71665;SDS011;59503;53.486;10.196;2023-06-04T07:51:28;3.17;;;1.60;;
71665;SDS011;59503;53.486;10.196;2023-06-04T07:53:54;3.40;;;1.50;;
71665;SDS011;59503;53.486;10.196;2023-06-04T07:56:19;2.77;;;1.50;;
71665;SDS011;59503;53.486;10.196;2023-06-04T07:58:44;4.33;;;1.70;;
71665;SDS011;59503;53.486;10.196;2023-06-04T08:01:10;2.50;;;1.50;;
71665;SDS011;59503;53.486;10.196;2023-06-04T08:03:35;5.07;;;1.83;;
71665;SDS011;59503;53.486;10.196;2023-06-04T08:06:01;3.50;;;1.60;;
71665;SDS011;59503;53.486;10.196;2023-06-04T08:08:27;6.22;;;1.80;;
71665;SDS011;59503;53.486;10.196;2023-06-04T08:10:52;3.23;;;1.73;;
71665;SDS011;59503;53.486;10.196;2023-06-04T08:13:18;6.03;;;1.70;;
71665;SDS011;59503;53.486;10.196;2023-06-04T08:15:43;4.10;;;1.70;;
71665;SDS011;59503;53.486;10.196;2023-06-04T08:18:09;7.93;;;1.70;;
71665;SDS011;59503;53.486;10.196;2023-06-04T08:20:34;3.93;;;1.70;;
71665;SDS011;59503;53.486;10.196;2023-06-04T08:23:00;4.37;;;2.00;;
71665;SDS011;59503;53.486;10.196;2023-06-04T08:25:25;3.55;;;1.77;;
71665;SDS011;59503;53.486;10.196;2023-06-04T08:27:51;5.03;;;1.80;;
71665;SDS011;59503;53.486;10.196;2023-06-04T08:30:16;2.73;;;1.80;;
71665;SDS011;59503;53.486;10.196;2023-06-04T08:32:41;3.67;;;1.70;;
71665;SDS011;59503;53.486;10.196;2023-06-04T08:35:07;2.40;;;1.50;;
71665;SDS011;59503;53.486;10.196;2023-06-04T08:37:33;2.55;;;1.50;;
71665;SDS011;59503;53.486;10.196;2023-06-04T08:39:58;4.90;;;1.93;;
71665;SDS011;59503;53.486;10.196;2023-06-04T08:42:30;4.70;;;2.23;;
71665;SDS011;59503;53.486;10.196;2023-06-04T08:44:57;2.15;;;1.50;;
71665;SDS011;59503;53.486;10.196;2023-06-04T08:47:24;6.65;;;2.00;;
71665;SDS011;59503;53.486;10.196;2023-06-04T08:49:51;2.58;;;1.70;;
71665;SDS011;59503;53.486;10.196;2023-06-04T08:52:17;2.40;;;1.93;;
71665;SDS011;59503;53.486;10.196;2023-06-04T08:54:47;3.50;;;1.80;;
71665;SDS011;59503;53.486;10.196;2023-06-04T08:57:16;4.28;;;1.92;;
71665;SDS011;59503;53.486;10.196;2023-06-04T08:59:42;3.13;;;1.75;;
71665;SDS011;59503;53.486;10.196;2023-06-04T09:02:08;3.47;;;1.63;;
71665;SDS011;59503;53.486;10.196;2023-06-04T09:04:33;4.93;;;1.63;;
71665;SDS011;59503;53.486;10.196;2023-06-04T09:07:02;3.55;;;1.77;;
71665;SDS011;59503;53.486;10.196;2023-06-04T09:09:29;2.40;;;1.80;;
71665;SDS011;59503;53.486;10.196;2023-06-04T09:11:56;3.20;;;1.80;;
71665;SDS011;59503;53.486;10.196;2023-06-04T09:14:22;2.20;;;1.90;;
71665;SDS011;59503;53.486;10.196;2023-06-04T09:16:49;2.30;;;2.10;;
71665;SDS011;59503;53.486;10.196;2023-06-04T09:19:16;2.40;;;1.90;;
71665;SDS011;59503;53.486;10.196;2023-06-04T09:21:56;5.05;;;2.13;;
71665;SDS011;59503;53.486;10.196;2023-06-04T09:24:25;4.18;;;2.10;;
71665;SDS011;59503;53.486;10.196;2023-06-04T09:27:15;4.20;;;2.50;;
71665;SDS011;59503;53.486;10.196;2023-06-04T09:29:51;3.97;;;1.90;;
71665;SDS011;59503;53.486;10.196;2023-06-04T09:32:21;3.83;;;2.30;;
71665;SDS011;59503;53.486;10.196;2023-06-04T09:34:47;3.67;;;2.15;;
71665;SDS011;59503;53.486;10.196;2023-06-04T09:37:16;3.53;;;1.90;;
71665;SDS011;59503;53.486;10.196;2023-06-04T09:39:54;5.68;;;2.38;;
71665;SDS011;59503;53.486;10.196;2023-06-04T09:42:20;5.53;;;2.03;;
71665;SDS011;59503;53.486;10.196;2023-06-04T09:44:47;3.53;;;1.98;;
71665;SDS011;59503;53.486;10.196;2023-06-04T09:47:12;2.37;;;1.83;;
71665;SDS011;59503;53.486;10.196;2023-06-04T09:49:56;5.17;;;1.83;;
71665;SDS011;59503;53.486;10.196;2023-06-04T09:52:31;3.55;;;2.20;;
71665;SDS011;59503;53.486;10.196;2023-06-04T09:54:57;4.45;;;2.20;;
71665;SDS011;59503;53.486;10.196;2023-06-04T09:57:23;3.17;;;2.35;;
71665;SDS011;59503;53.486;10.196;2023-06-04T09:59:50;3.35;;;2.70;;
71665;SDS011;59503;53.486;10.196;2023-06-04T10:02:19;3.43;;;2.20;;
71665;SDS011;59503;53.486;10.196;2023-06-04T10:04:48;3.63;;;2.50;;
71665;SDS011;59503;53.486;10.196;2023-06-04T10:07:18;4.10;;;2.20;;
71665;SDS011;59503;53.486;10.196;2023-06-04T10:09:44;6.15;;;2.08;;
71665;SDS011;59503;53.486;10.196;2023-06-04T10:12:12;3.42;;;2.30;;
71665;SDS011;59503;53.486;10.196;2023-06-04T10:14:50;4.85;;;2.60;;
71665;SDS011;59503;53.486;10.196;2023-06-04T10:17:18;6.87;;;2.37;;
71665;SDS011;59503;53.486;10.196;2023-06-04T10:19:47;4.38;;;2.65;;
71665;SDS011;59503;53.486;10.196;2023-06-04T10:22:17;4.63;;;2.40;;
71665;SDS011;59503;53.486;10.196;2023-06-04T10:24:43;5.32;;;2.60;;
71665;SDS011;59503;53.486;10.196;2023-06-04T10:27:08;2.20;;;1.80;;
71665;SDS011;59503;53.486;10.196;2023-06-04T10:29:37;4.97;;;2.25;;
71665;SDS011;59503;53.486;10.196;2023-06-04T10:32:03;4.75;;;2.30;;
71665;SDS011;59503;53.486;10.196;2023-06-04T10:34:29;6.97;;;2.40;;
71665;SDS011;59503;53.486;10.196;2023-06-04T10:36:55;4.00;;;1.90;;
71665;SDS011;59503;53.486;10.196;2023-06-04T10:39:25;6.22;;;2.25;;
71665;SDS011;59503;53.486;10.196;2023-06-04T10:42:03;9.48;;;1.90;;
71665;SDS011;59503;53.486;10.196;2023-06-04T10:44:48;4.00;;;2.13;;
71665;SDS011;59503;53.486;10.196;2023-06-04T10:47:23;2.23;;;1.37;;
71665;SDS011;59503;53.486;10.196;2023-06-04T10:49:50;5.18;;;1.67;;
71665;SDS011;59503;53.486;10.196;2023-06-04T10:52:17;4.18;;;1.92;;
71665;SDS011;59503;53.486;10.196;2023-06-04T10:54:42;3.45;;;1.95;;
71665;SDS011;59503;53.486;10.196;2023-06-04T10:57:13;5.22;;;1.80;;
71665;SDS011;59503;53.486;10.196;2023-06-04T10:59:55;2.87;;;1.50;;
71665;SDS011;59503;53.486;10.196;2023-06-04T11:02:21;5.50;;;1.90;;
71665;SDS011;59503;53.486;10.196;2023-06-04T11:04:57;4.93;;;2.33;;
71665;SDS011;59503;53.486;10.196;2023-06-04T11:07:40;4.50;;;2.47;;
71665;SDS011;59503;53.486;10.196;2023-06-04T11:10:08;6.90;;;3.05;;
71665;SDS011;59503;53.486;10.196;2023-06-04T11:12:42;7.00;;;2.40;;
71665;SDS011;59503;53.486;10.196;2023-06-04T11:15:08;5.85;;;2.47;;
71665;SDS011;59503;53.486;10.196;2023-06-04T11:17:34;3.83;;;2.28;;
71665;SDS011;59503;53.486;10.196;2023-06-04T11:20:00;3.28;;;2.20;;
71665;SDS011;59503;53.486;10.196;2023-06-04T11:22:25;4.50;;;2.33;;
71665;SDS011;59503;53.486;10.196;2023-06-04T11:24:57;3.77;;;2.27;;
71665;SDS011;59503;53.486;10.196;2023-06-04T11:27:24;4.45;;;2.28;;
71665;SDS011;59503;53.486;10.196;2023-06-04T11:29:50;5.75;;;2.60;;
71665;SDS011;59503;53.486;10.196;2023-06-04T11:32:23;3.15;;;2.50;;
71665;SDS011;59503;53.486;10.196;2023-06-04T11:34:48;6.87;;;2.60;;
71665;SDS011;59503;53.486;10.196;2023-06-04T11:37:14;5.60;;;2.30;;
71665;SDS011;59503;53.486;10.196;2023-06-04T11:39:40;2.73;;;2.27;;
71665;SDS011;59503;53.486;10.196;2023-06-04T11:42:07;9.10;;;2.60;;
71665;SDS011;59503;53.486;10.196;2023-06-04T11:44:33;3.92;;;2.55;;
71665;SDS011;59503;53.486;10.196;2023-06-04T11:46:59;2.50;;;2.30;;
71665;SDS011;59503;53.486;10.196;2023-06-04T11:49:25;4.00;;;2.53;;
71665;SDS011;59503;53.486;10.196;2023-06-04T11:51:52;4.43;;;2.30;;
71665;SDS011;59503;53.486;10.196;2023-06-04T11:54:18;4.47;;;2.20;;
71665;SDS011;59503;53.486;10.196;2023-06-04T11:56:45;5.82;;;2.90;;
71665;SDS011;59503;53.486;10.196;2023-06-04T11:59:13;3.50;;;2.57;;
71665;SDS011;59503;53.486;10.196;2023-06-04T12:01:43;7.72;;;2.60;;
71665;SDS011;59503;53.486;10.196;2023-06-04T12:06:49;5.30;;;2.40;;
71665;SDS011;59503;53.486;10.196;2023-06-04T12:09:27;5.95;;;2.90;;
71665;SDS011;59503;53.486;10.196;2023-06-04T12:12:00;4.57;;;2.20;;
71665;SDS011;59503;53.486;10.196;2023-06-04T12:14:27;3.83;;;2.33;;
71665;SDS011;59503;53.486;10.196;2023-06-04T12:16:59;3.75;;;2.40;;
71665;SDS011;59503;53.486;10.196;2023-06-04T12:19:32;2.97;;;2.30;;
71665;SDS011;59503;53.486;10.196;2023-06-04T12:21:59;7.23;;;3.13;;
71665;SDS011;59503;53.486;10.196;2023-06-04T12:24:28;4.30;;;2.45;;
71665;SDS011;59503;53.486;10.196;2023-06-04T12:27:01;3.00;;;2.50;;
71665;SDS011;59503;53.486;10.196;2023-06-04T12:29:31;4.72;;;2.60;;
71665;SDS011;59503;53.486;10.196;2023-06-04T12:32:04;7.10;;;2.60;;
71665;SDS011;59503;53.486;10.196;2023-06-04T12:34:38;4.35;;;2.47;;
71665;SDS011;59503;53.486;10.196;2023-06-04T12:37:05;3.90;;;2.72;;
71665;SDS011;59503;53.486;10.196;2023-06-04T12:39:32;6.68;;;2.40;;
71665;SDS011;59503;53.486;10.196;2023-06-04T12:41:58;5.17;;;2.40;;
71665;SDS011;59503;53.486;10.196;2023-06-04T12:44:24;4.15;;;2.40;;
71665;SDS011;59503;53.486;10.196;2023-06-04T12:46:49;4.53;;;2.43;;
71665;SDS011;59503;53.486;10.196;2023-06-04T12:49:15;3.45;;;2.50;;
71665;SDS011;59503;53.486;10.196;2023-06-04T12:51:41;4.23;;;2.37;;
71665;SDS011;59503;53.486;10.196;2023-06-04T12:54:06;4.47;;;2.70;;
71665;SDS011;59503;53.486;10.196;2023-06-04T12:56:31;3.30;;;2.40;;
71665;SDS011;59503;53.486;10.196;2023-06-04T12:58:57;5.20;;;2.67;;
71665;SDS011;59503;53.486;10.196;2023-06-04T13:01:22;5.00;;;2.67;;
71665;SDS011;59503;53.486;10.196;2023-06-04T13:03:47;5.20;;;2.50;;
71665;SDS011;59503;53.486;10.196;2023-06-04T13:06:13;4.40;;;2.47;;
71665;SDS011;59503;53.486;10.196;2023-06-04T13:08:38;5.43;;;2.70;;
71665;SDS011;59503;53.486;10.196;2023-06-04T13:11:04;3.97;;;2.50;;
71665;SDS011;59503;53.486;10.196;2023-06-04T13:13:30;4.18;;;2.60;;
71665;SDS011;59503;53.486;10.196;2023-06-04T13:15:55;6.33;;;2.70;;
71665;SDS011;59503;53.486;10.196;2023-06-04T13:18:21;4.63;;;2.50;;
71665;SDS011;59503;53.486;10.196;2023-06-04T13:20:47;6.32;;;2.60;;
71665;SDS011;59503;53.486;10.196;2023-06-04T13:23:14;9.27;;;2.77;;
71665;SDS011;59503;53.486;10.196;2023-06-04T13:25:40;4.15;;;2.42;;
71665;SDS011;59503;53.486;10.196;2023-06-04T13:28:06;5.10;;;2.60;;
71665;SDS011;59503;53.486;10.196;2023-06-04T13:30:32;6.82;;;2.80;;
71665;SDS011;59503;53.486;10.196;2023-06-04T13:33:00;3.93;;;2.43;;
71665;SDS011;59503;53.486;10.196;2023-06-04T13:35:25;4.90;;;2.50;;
71665;SDS011;59503;53.486;10.196;2023-06-04T13:37:51;5.80;;;2.80;;
71665;SDS011;59503;53.486;10.196;2023-06-04T13:40:16;5.70;;;2.50;;
71665;SDS011;59503;53.486;10.196;2023-06-04T13:42:42;6.57;;;3.07;;
71665;SDS011;59503;53.486;10.196;2023-06-04T13:45:10;5.10;;;2.72;;
71665;SDS011;59503;53.486;10.196;2023-06-04T13:47:35;10.53;;;2.60;;
71665;SDS011;59503;53.486;10.196;2023-06-04T13:50:01;3.67;;;2.60;;
71665;SDS011;59503;53.486;10.196;2023-06-04T13:52:27;5.18;;;2.40;;
71665;SDS011;59503;53.486;10.196;2023-06-04T13:54:56;2.95;;;2.15;;
71665;SDS011;59503;53.486;10.196;2023-06-04T13:57:24;3.35;;;2.40;;
71665;SDS011;59503;53.486;10.196;2023-06-04T13:59:50;3.20;;;2.38;;
71665;SDS011;59503;53.486;10.196;2023-06-04T14:02:15;3.73;;;2.40;;
71665;SDS011;59503;53.486;10.196;2023-06-04T14:04:41;4.27;;;2.40;;
71665;SDS011;59503;53.486;10.196;2023-06-04T14:07:06;4.33;;;2.40;;
71665;SDS011;59503;53.486;10.196;2023-06-04T14:09:32;3.20;;;2.17;;
71665;SDS011;59503;53.486;10.196;2023-06-04T14:11:57;4.55;;;2.10;;
71665;SDS011;59503;53.486;10.196;2023-06-04T14:14:23;4.03;;;2.40;;
71665;SDS011;59503;53.486;10.196;2023-06-04T14:16:49;4.80;;;2.23;;
71665;SDS011;59503;53.486;10.196;2023-06-04T14:19:15;3.08;;;2.35;;
71665;SDS011;59503;53.486;10.196;2023-06-04T14:21:43;5.20;;;2.53;;
71665;SDS011;59503;53.486;10.196;2023-06-04T14:24:09;3.33;;;2.33;;
71665;SDS011;59503;53.486;10.196;2023-06-04T14:26:35;2.83;;;2.20;;
71665;SDS011;59503;53.486;10.196;2023-06-04T14:29:01;4.87;;;2.40;;
71665;SDS011;59503;53.486;10.196;2023-06-04T14:31:27;3.03;;;2.40;;
71665;SDS011;59503;53.486;10.196;2023-06-04T14:33:52;4.27;;;2.47;;
71665;SDS011;59503;53.486;10.196;2023-06-04T14:36:18;2.50;;;2.30;;